sensor_id;sensor_type;location;lat;lon;timestamp;pressure;altitude;pressure_sealevel;temperature
49785;BMP280;35679;38.732;-121.358;2022-10-16T00:02:45;100444.13;;;25.90
49785;BMP280;35679;38.732;-121.358;2022-10-16T00:05:40;100443.56;;;25.93
49785;BMP280;35679;38.732;-121.358;2022-10-16T00:08:31;100440.31;;;25.96
49785;BMP280;35679;38.732;-121.358;2022-10-16T00:11:24;100440.84;;;25.98
49785;BMP280;35679;38.732;-121.358;2022-10-16T00:14:16;100439.22;;;26.02
49785;BMP280;35679;38.732;-121.358;2022-10-16T00:17:08;100438.69;;;26.05
49785;BMP280;35679;38.732;-121.358;2022-10-16T00:19:59;100441.13;;;26.06
49785;BMP280;35679;38.732;-121.358;2022-10-16T00:22:49;100445.16;;;26.09
49785;BMP280;35679;38.732;-121.358;2022-10-16T00:25:39;100435.97;;;26.10
49785;BMP280;35679;38.732;-121.358;2022-10-16T00:28:30;100440.81;;;26.13
49785;BMP280;35679;38.732;-121.358;2022-10-16T00:31:22;100440.81;;;26.13
49785;BMP280;35679;38.732;-121.358;2022-10-16T00:34:12;100442.44;;;26.14
49785;BMP280;35679;38.732;-121.358;2022-10-16T00:37:03;100445.69;;;26.16
49785;BMP280;35679;38.732;-121.358;2022-10-16T00:39:53;100459.22;;;26.16
49785;BMP280;35679;38.732;-121.358;2022-10-16T00:42:43;100453.53;;;26.17
49785;BMP280;35679;38.732;-121.358;2022-10-16T00:45:34;100466.22;;;26.17
49785;BMP280;35679;38.732;-121.358;2022-10-16T00:48:25;100467.34;;;26.16
49785;BMP280;35679;38.732;-121.358;2022-10-16T00:51:18;100464.63;;;26.16
49785;BMP280;35679;38.732;-121.358;2022-10-16T00:54:26;100463.81;;;26.15
49785;BMP280;35679;38.732;-121.358;2022-10-16T00:57:17;100467.59;;;26.14
49785;BMP280;35679;38.732;-121.358;2022-10-16T01:00:11;100473.28;;;26.13
49785;BMP280;35679;38.732;-121.358;2022-10-16T01:03:21;100475.47;;;26.11
49785;BMP280;35679;38.732;-121.358;2022-10-16T01:06:28;100481.66;;;26.11
49785;BMP280;35679;38.732;-121.358;2022-10-16T01:09:36;100488.69;;;26.12
49785;BMP280;35679;38.732;-121.358;2022-10-16T01:12:36;100490.56;;;26.12
49785;BMP280;35679;38.732;-121.358;2022-10-16T01:15:39;100492.47;;;26.11
49785;BMP280;35679;38.732;-121.358;2022-10-16T01:19:02;100506.00;;;26.11
49785;BMP280;35679;38.732;-121.358;2022-10-16T01:22:01;100505.44;;;26.09
49785;BMP280;35679;38.732;-121.358;2022-10-16T01:24:54;100514.63;;;26.08
49785;BMP280;35679;38.732;-121.358;2022-10-16T01:27:46;100515.47;;;26.09
49785;BMP280;35679;38.732;-121.358;2022-10-16T01:30:39;100524.66;;;26.08
49785;BMP280;35679;38.732;-121.358;2022-10-16T01:33:40;100530.88;;;26.03
49785;BMP280;35679;38.732;-121.358;2022-10-16T01:36:51;100532.78;;;26.03
49785;BMP280;35679;38.732;-121.358;2022-10-16T01:39:45;100531.16;;;25.97
49785;BMP280;35679;38.732;-121.358;2022-10-16T01:42:43;100541.44;;;25.95
49785;BMP280;35679;38.732;-121.358;2022-10-16T01:45:36;100531.16;;;25.92
49785;BMP280;35679;38.732;-121.358;2022-10-16T01:48:27;100532.78;;;25.93
49785;BMP280;35679;38.732;-121.358;2022-10-16T01:51:19;100537.13;;;25.94
49785;BMP280;35679;38.732;-121.358;2022-10-16T01:54:11;100531.16;;;25.92
49785;BMP280;35679;38.732;-121.358;2022-10-16T01:57:05;100543.06;;;25.86
49785;BMP280;35679;38.732;-121.358;2022-10-16T02:00:03;100538.19;;;25.83
49785;BMP280;35679;38.732;-121.358;2022-10-16T02:03:01;100550.63;;;25.79
49785;BMP280;35679;38.732;-121.358;2022-10-16T02:05:56;100552.00;;;25.77
49785;BMP280;35679;38.732;-121.358;2022-10-16T02:08:47;100554.94;;;25.75
49785;BMP280;35679;38.732;-121.358;2022-10-16T02:11:39;100566.31;;;25.72
49785;BMP280;35679;38.732;-121.358;2022-10-16T02:14:29;100565.50;;;25.72
49785;BMP280;35679;38.732;-121.358;2022-10-16T02:17:21;100569.25;;;25.71
49785;BMP280;35679;38.732;-121.358;2022-10-16T02:20:11;100571.41;;;25.69
49785;BMP280;35679;38.732;-121.358;2022-10-16T02:23:03;100576.25;;;25.62
49785;BMP280;35679;38.732;-121.358;2022-10-16T02:25:54;100578.16;;;25.61
49785;BMP280;35679;38.732;-121.358;2022-10-16T02:28:52;100584.91;;;25.64
49785;BMP280;35679;38.732;-121.358;2022-10-16T02:31:46;100590.03;;;25.60
49785;BMP280;35679;38.732;-121.358;2022-10-16T02:34:41;100600.31;;;25.58
49785;BMP280;35679;38.732;-121.358;2022-10-16T02:37:32;100604.34;;;25.56
49785;BMP280;35679;38.732;-121.358;2022-10-16T02:40:24;100605.94;;;25.52
49785;BMP280;35679;38.732;-121.358;2022-10-16T02:43:14;100618.66;;;25.51
49785;BMP280;35679;38.732;-121.358;2022-10-16T02:46:05;100622.44;;;25.50
49785;BMP280;35679;38.732;-121.358;2022-10-16T02:48:56;100626.47;;;25.48
49785;BMP280;35679;38.732;-121.358;2022-10-16T02:51:46;100623.75;;;25.43
49785;BMP280;35679;38.732;-121.358;2022-10-16T02:54:36;100634.84;;;25.41
49785;BMP280;35679;38.732;-121.358;2022-10-16T02:57:27;100640.50;;;25.40
49785;BMP280;35679;38.732;-121.358;2022-10-16T03:00:17;100636.44;;;25.37
49785;BMP280;35679;38.732;-121.358;2022-10-16T03:03:08;100646.69;;;25.35
49785;BMP280;35679;38.732;-121.358;2022-10-16T03:05:57;100655.56;;;25.26
49785;BMP280;35679;38.732;-121.358;2022-10-16T03:08:48;100647.22;;;25.27
49785;BMP280;35679;38.732;-121.358;2022-10-16T03:11:39;100653.97;;;25.25
49785;BMP280;35679;38.732;-121.358;2022-10-16T03:14:28;100650.69;;;25.23
49785;BMP280;35679;38.732;-121.358;2022-10-16T03:17:18;100654.47;;;25.22
49785;BMP280;35679;38.732;-121.358;2022-10-16T03:20:08;100655.00;;;25.19
49785;BMP280;35679;38.732;-121.358;2022-10-16T03:22:58;100662.56;;;25.17
49785;BMP280;35679;38.732;-121.358;2022-10-16T03:25:50;100664.44;;;25.16
49785;BMP280;35679;38.732;-121.358;2022-10-16T03:28:40;100658.50;;;25.14
49785;BMP280;35679;38.732;-121.358;2022-10-16T03:31:31;100664.44;;;25.12
49785;BMP280;35679;38.732;-121.358;2022-10-16T03:34:24;100666.56;;;25.10
49785;BMP280;35679;38.732;-121.358;2022-10-16T03:37:15;100673.31;;;25.07
49785;BMP280;35679;38.732;-121.358;2022-10-16T03:40:06;100671.91;;;25.05
49785;BMP280;35679;38.732;-121.358;2022-10-16T03:42:57;100674.03;;;25.03
49785;BMP280;35679;38.732;-121.358;2022-10-16T03:45:49;100681.63;;;25.01
49785;BMP280;35679;38.732;-121.358;2022-10-16T03:48:39;100679.41;;;24.98
49785;BMP280;35679;38.732;-121.358;2022-10-16T03:51:31;100690.75;;;24.95
49785;BMP280;35679;38.732;-121.358;2022-10-16T03:54:20;100691.03;;;24.93
49785;BMP280;35679;38.732;-121.358;2022-10-16T03:57:11;100693.41;;;24.90
49785;BMP280;35679;38.732;-121.358;2022-10-16T04:00:01;100696.38;;;24.88
49785;BMP280;35679;38.732;-121.358;2022-10-16T04:02:58;100694.19;;;24.85
49785;BMP280;35679;38.732;-121.358;2022-10-16T04:05:49;100696.09;;;24.85
49785;BMP280;35679;38.732;-121.358;2022-10-16T04:08:42;100714.41;;;24.83
49785;BMP280;35679;38.732;-121.358;2022-10-16T04:11:33;100717.91;;;24.78
49785;BMP280;35679;38.732;-121.358;2022-10-16T04:14:23;100714.66;;;24.76
49785;BMP280;35679;38.732;-121.358;2022-10-16T04:17:14;100713.53;;;24.72
49785;BMP280;35679;38.732;-121.358;2022-10-16T04:20:07;100720.81;;;24.72
49785;BMP280;35679;38.732;-121.358;2022-10-16T04:22:57;100716.75;;;24.69
49785;BMP280;35679;38.732;-121.358;2022-10-16T04:25:48;100720.78;;;24.67
49785;BMP280;35679;38.732;-121.358;2022-10-16T04:28:38;100730.19;;;24.64
49785;BMP280;35679;38.732;-121.358;2022-10-16T04:31:31;100730.47;;;24.63
49785;BMP280;35679;38.732;-121.358;2022-10-16T04:34:21;100730.16;;;24.59
49785;BMP280;35679;38.732;-121.358;2022-10-16T04:37:12;100735.81;;;24.58
49785;BMP280;35679;38.732;-121.358;2022-10-16T04:40:03;100737.94;;;24.56
49785;BMP280;35679;38.732;-121.358;2022-10-16T04:42:54;100747.13;;;24.55
49785;BMP280;35679;38.732;-121.358;2022-10-16T04:45:44;100745.47;;;24.49
49785;BMP280;35679;38.732;-121.358;2022-10-16T04:48:34;100752.72;;;24.48
49785;BMP280;35679;38.732;-121.358;2022-10-16T04:51:25;100746.78;;;24.47
49785;BMP280;35679;38.732;-121.358;2022-10-16T04:54:17;100761.03;;;24.42
49785;BMP280;35679;38.732;-121.358;2022-10-16T04:57:07;100761.28;;;24.41
49785;BMP280;35679;38.732;-121.358;2022-10-16T05:00:02;100757.19;;;24.38
49785;BMP280;35679;38.732;-121.358;2022-10-16T05:02:53;100765.28;;;24.38
49785;BMP280;35679;38.732;-121.358;2022-10-16T05:05:45;100764.72;;;24.36
49785;BMP280;35679;38.732;-121.358;2022-10-16T05:08:36;100767.94;;;24.33
49785;BMP280;35679;38.732;-121.358;2022-10-16T05:11:26;100770.63;;;24.33
49785;BMP280;35679;38.732;-121.358;2022-10-16T05:14:17;100767.34;;;24.31
49785;BMP280;35679;38.732;-121.358;2022-10-16T05:17:07;100768.44;;;24.30
49785;BMP280;35679;38.732;-121.358;2022-10-16T05:19:58;100774.09;;;24.29
49785;BMP280;35679;38.732;-121.358;2022-10-16T05:22:49;100775.41;;;24.26
49785;BMP280;35679;38.732;-121.358;2022-10-16T05:25:39;100784.81;;;24.24
49785;BMP280;35679;38.732;-121.358;2022-10-16T05:28:30;100782.38;;;24.22
49785;BMP280;35679;38.732;-121.358;2022-10-16T05:31:20;100774.56;;;24.21
49785;BMP280;35679;38.732;-121.358;2022-10-16T05:34:10;100778.56;;;24.18
49785;BMP280;35679;38.732;-121.358;2022-10-16T05:37:01;100778.00;;;24.16
49785;BMP280;35679;38.732;-121.358;2022-10-16T05:39:52;100777.41;;;24.14
49785;BMP280;35679;38.732;-121.358;2022-10-16T05:42:43;100771.50;;;24.12
49785;BMP280;35679;38.732;-121.358;2022-10-16T05:45:33;100774.44;;;24.11
49785;BMP280;35679;38.732;-121.358;2022-10-16T05:48:24;100778.22;;;24.10
49785;BMP280;35679;38.732;-121.358;2022-10-16T05:51:15;100782.22;;;24.07
49785;BMP280;35679;38.732;-121.358;2022-10-16T05:54:05;100778.94;;;24.05
49785;BMP280;35679;38.732;-121.358;2022-10-16T05:56:56;100789.41;;;24.02
49785;BMP280;35679;38.732;-121.358;2022-10-16T05:59:45;100794.00;;;24.01
49785;BMP280;35679;38.732;-121.358;2022-10-16T06:02:36;100794.25;;;24.00
49785;BMP280;35679;38.732;-121.358;2022-10-16T06:05:27;100799.09;;;23.98
49785;BMP280;35679;38.732;-121.358;2022-10-16T06:08:18;100803.09;;;23.95
49785;BMP280;35679;38.732;-121.358;2022-10-16T06:11:11;100797.13;;;23.93
49785;BMP280;35679;38.732;-121.358;2022-10-16T06:14:02;100793.06;;;23.91
49785;BMP280;35679;38.732;-121.358;2022-10-16T06:16:56;100806.00;;;23.89
49785;BMP280;35679;38.732;-121.358;2022-10-16T06:19:46;100795.47;;;23.87
49785;BMP280;35679;38.732;-121.358;2022-10-16T06:22:36;100802.72;;;23.87
49785;BMP280;35679;38.732;-121.358;2022-10-16T06:25:27;100801.59;;;23.83
49785;BMP280;35679;38.732;-121.358;2022-10-16T06:28:17;100803.72;;;23.81
49785;BMP280;35679;38.732;-121.358;2022-10-16T06:31:10;100809.09;;;23.81
49785;BMP280;35679;38.732;-121.358;2022-10-16T06:34:01;100812.06;;;23.79
49785;BMP280;35679;38.732;-121.358;2022-10-16T06:36:51;100814.19;;;23.77
49785;BMP280;35679;38.732;-121.358;2022-10-16T06:39:45;100818.44;;;23.74
49785;BMP280;35679;38.732;-121.358;2022-10-16T06:42:35;100817.91;;;23.72
49785;BMP280;35679;38.732;-121.358;2022-10-16T06:45:26;100806.28;;;23.71
49785;BMP280;35679;38.732;-121.358;2022-10-16T06:48:16;100814.59;;;23.70
49785;BMP280;35679;38.732;-121.358;2022-10-16T06:51:09;100813.22;;;23.67
49785;BMP280;35679;38.732;-121.358;2022-10-16T06:54:00;100811.84;;;23.65
49785;BMP280;35679;38.732;-121.358;2022-10-16T06:56:52;100820.16;;;23.63
49785;BMP280;35679;38.732;-121.358;2022-10-16T06:59:44;100819.34;;;23.63
49785;BMP280;35679;38.732;-121.358;2022-10-16T07:02:34;100815.25;;;23.60
49785;BMP280;35679;38.732;-121.358;2022-10-16T07:05:24;100819.84;;;23.60
49785;BMP280;35679;38.732;-121.358;2022-10-16T07:08:14;100825.50;;;23.58
49785;BMP280;35679;38.732;-121.358;2022-10-16T07:11:10;100820.34;;;23.57
49785;BMP280;35679;38.732;-121.358;2022-10-16T07:14:00;100821.41;;;23.56
49785;BMP280;35679;38.732;-121.358;2022-10-16T07:16:51;100823.06;;;23.57
49785;BMP280;35679;38.732;-121.358;2022-10-16T07:19:41;100828.91;;;23.54
49785;BMP280;35679;38.732;-121.358;2022-10-16T07:22:32;100836.41;;;23.52
49785;BMP280;35679;38.732;-121.358;2022-10-16T07:25:22;100836.94;;;23.49
49785;BMP280;35679;38.732;-121.358;2022-10-16T07:28:11;100844.44;;;23.47
49785;BMP280;35679;38.732;-121.358;2022-10-16T07:31:03;100835.81;;;23.45
49785;BMP280;35679;38.732;-121.358;2022-10-16T07:33:54;100834.16;;;23.44
49785;BMP280;35679;38.732;-121.358;2022-10-16T07:36:48;100841.66;;;23.42
49785;BMP280;35679;38.732;-121.358;2022-10-16T07:39:39;100837.91;;;23.43
49785;BMP280;35679;38.732;-121.358;2022-10-16T07:42:28;100848.13;;;23.41
49785;BMP280;35679;38.732;-121.358;2022-10-16T07:45:19;100844.88;;;23.39
49785;BMP280;35679;38.732;-121.358;2022-10-16T07:48:09;100844.06;;;23.38
49785;BMP280;35679;38.732;-121.358;2022-10-16T07:51:02;100837.84;;;23.38
49785;BMP280;35679;38.732;-121.358;2022-10-16T07:53:53;100834.81;;;23.34
49785;BMP280;35679;38.732;-121.358;2022-10-16T07:56:44;100847.47;;;23.34
49785;BMP280;35679;38.732;-121.358;2022-10-16T07:59:34;100854.97;;;23.32
49785;BMP280;35679;38.732;-121.358;2022-10-16T08:02:25;100867.91;;;23.30
49785;BMP280;35679;38.732;-121.358;2022-10-16T08:05:16;100859.81;;;23.30
49785;BMP280;35679;38.732;-121.358;2022-10-16T08:08:06;100860.28;;;23.27
49785;BMP280;35679;38.732;-121.358;2022-10-16T08:10:57;100862.19;;;23.26
49785;BMP280;35679;38.732;-121.358;2022-10-16T08:13:47;100869.66;;;23.24
49785;BMP280;35679;38.732;-121.358;2022-10-16T08:16:38;100868.88;;;23.24
49785;BMP280;35679;38.732;-121.358;2022-10-16T08:19:29;100871.56;;;23.24
49785;BMP280;35679;38.732;-121.358;2022-10-16T08:22:21;100876.38;;;23.22
49785;BMP280;35679;38.732;-121.358;2022-10-16T08:25:12;100870.97;;;23.22
49785;BMP280;35679;38.732;-121.358;2022-10-16T08:28:08;100866.66;;;23.21
49785;BMP280;35679;38.732;-121.358;2022-10-16T08:34:23;100866.34;;;23.17
49785;BMP280;35679;38.732;-121.358;2022-10-16T08:37:14;100867.41;;;23.16
49785;BMP280;35679;38.732;-121.358;2022-10-16T08:40:07;100863.06;;;23.15
49785;BMP280;35679;38.732;-121.358;2022-10-16T08:43:36;100857.09;;;23.13
49785;BMP280;35679;38.732;-121.358;2022-10-16T08:46:34;100867.06;;;23.13
49785;BMP280;35679;38.732;-121.358;2022-10-16T08:49:30;100870.00;;;23.12
49785;BMP280;35679;38.732;-121.358;2022-10-16T08:52:21;100877.25;;;23.11
49785;BMP280;35679;38.732;-121.358;2022-10-16T08:55:30;100872.97;;;23.10
49785;BMP280;35679;38.732;-121.358;2022-10-16T08:58:26;100865.34;;;23.07
49785;BMP280;35679;38.732;-121.358;2022-10-16T09:01:19;100872.63;;;23.07
49785;BMP280;35679;38.732;-121.358;2022-10-16T09:10:45;100883.06;;;23.03
49785;BMP280;35679;38.732;-121.358;2022-10-16T09:13:50;100877.94;;;23.02
49785;BMP280;35679;38.732;-121.358;2022-10-16T09:16:51;100877.09;;;23.01
49785;BMP280;35679;38.732;-121.358;2022-10-16T09:19:53;100881.88;;;22.99
49785;BMP280;35679;38.732;-121.358;2022-10-16T09:22:46;100879.41;;;22.98
49785;BMP280;35679;38.732;-121.358;2022-10-16T09:25:38;100884.00;;;22.97
49785;BMP280;35679;38.732;-121.358;2022-10-16T09:28:29;100889.63;;;22.96
49785;BMP280;35679;38.732;-121.358;2022-10-16T09:31:22;100889.88;;;22.94
49785;BMP280;35679;38.732;-121.358;2022-10-16T09:34:33;100891.97;;;22.92
49785;BMP280;35679;38.732;-121.358;2022-10-16T09:37:25;100890.34;;;22.91
49785;BMP280;35679;38.732;-121.358;2022-10-16T09:40:35;100898.41;;;22.91
49785;BMP280;35679;38.732;-121.358;2022-10-16T09:46:42;100900.56;;;22.89
49785;BMP280;35679;38.732;-121.358;2022-10-16T09:49:32;100899.97;;;22.87
49785;BMP280;35679;38.732;-121.358;2022-10-16T09:52:24;100903.72;;;22.86
49785;BMP280;35679;38.732;-121.358;2022-10-16T09:55:17;100905.59;;;22.86
49785;BMP280;35679;38.732;-121.358;2022-10-16T09:58:13;100910.38;;;22.84
49785;BMP280;35679;38.732;-121.358;2022-10-16T10:01:04;100912.50;;;22.82
49785;BMP280;35679;38.732;-121.358;2022-10-16T10:03:57;100906.31;;;22.81
49785;BMP280;35679;38.732;-121.358;2022-10-16T10:06:54;100910.06;;;22.80
49785;BMP280;35679;38.732;-121.358;2022-10-16T10:09:46;100919.19;;;22.79
49785;BMP280;35679;38.732;-121.358;2022-10-16T10:12:37;100927.25;;;22.79
49785;BMP280;35679;38.732;-121.358;2022-10-16T10:15:33;100931.22;;;22.77
49785;BMP280;35679;38.732;-121.358;2022-10-16T10:18:24;100925.84;;;22.77
49785;BMP280;35679;38.732;-121.358;2022-10-16T10:21:16;100919.91;;;22.75
49785;BMP280;35679;38.732;-121.358;2022-10-16T10:24:12;100937.91;;;22.74
49785;BMP280;35679;38.732;-121.358;2022-10-16T10:27:10;100925.53;;;22.73
49785;BMP280;35679;38.732;-121.358;2022-10-16T10:30:20;100930.09;;;22.73
49785;BMP280;35679;38.732;-121.358;2022-10-16T10:36:28;100926.25;;;22.69
49785;BMP280;35679;38.732;-121.358;2022-10-16T10:39:36;100929.75;;;22.69
49785;BMP280;35679;38.732;-121.358;2022-10-16T10:42:43;100925.44;;;22.68
49785;BMP280;35679;38.732;-121.358;2022-10-16T10:45:42;100934.81;;;22.66
49785;BMP280;35679;38.732;-121.358;2022-10-16T11:01:37;100946.28;;;22.61
49785;BMP280;35679;38.732;-121.358;2022-10-16T11:07:38;100941.16;;;22.60
49785;BMP280;35679;38.732;-121.358;2022-10-16T11:11:00;100945.69;;;22.59
49785;BMP280;35679;38.732;-121.358;2022-10-16T11:13:58;100943.25;;;22.58
49785;BMP280;35679;38.732;-121.358;2022-10-16T11:20:40;100949.13;;;22.55
49785;BMP280;35679;38.732;-121.358;2022-10-16T11:26:35;100968.16;;;22.53
49785;BMP280;35679;38.732;-121.358;2022-10-16T11:29:32;100966.56;;;22.52
49785;BMP280;35679;38.732;-121.358;2022-10-16T11:32:32;100968.66;;;22.50
49785;BMP280;35679;38.732;-121.358;2022-10-16T11:42:18;100979.06;;;22.47
49785;BMP280;35679;38.732;-121.358;2022-10-16T11:48:35;100987.38;;;22.45
49785;BMP280;35679;38.732;-121.358;2022-10-16T11:51:38;100989.00;;;22.46
49785;BMP280;35679;38.732;-121.358;2022-10-16T11:54:44;100992.16;;;22.43
49785;BMP280;35679;38.732;-121.358;2022-10-16T11:57:41;100998.38;;;22.44
49785;BMP280;35679;38.732;-121.358;2022-10-16T12:04:02;101002.34;;;22.42
49785;BMP280;35679;38.732;-121.358;2022-10-16T12:09:51;101009.03;;;22.39
49785;BMP280;35679;38.732;-121.358;2022-10-16T12:12:41;101012.50;;;22.40
49785;BMP280;35679;38.732;-121.358;2022-10-16T12:15:34;101017.28;;;22.38
49785;BMP280;35679;38.732;-121.358;2022-10-16T12:18:46;101020.00;;;22.38
49785;BMP280;35679;38.732;-121.358;2022-10-16T12:21:37;101013.22;;;22.35
49785;BMP280;35679;38.732;-121.358;2022-10-16T12:27:31;101026.66;;;22.35
49785;BMP280;35679;38.732;-121.358;2022-10-16T12:30:26;101042.78;;;22.35
49785;BMP280;35679;38.732;-121.358;2022-10-16T12:33:25;101047.34;;;22.35
49785;BMP280;35679;38.732;-121.358;2022-10-16T12:36:28;101051.09;;;22.34
49785;BMP280;35679;38.732;-121.358;2022-10-16T12:39:24;101057.53;;;22.33
49785;BMP280;35679;38.732;-121.358;2022-10-16T12:42:22;101054.03;;;22.32
49785;BMP280;35679;38.732;-121.358;2022-10-16T12:48:21;101063.38;;;22.30
49785;BMP280;35679;38.732;-121.358;2022-10-16T12:54:31;101063.63;;;22.28
49785;BMP280;35679;38.732;-121.358;2022-10-16T12:57:41;101060.09;;;22.28
49785;BMP280;35679;38.732;-121.358;2022-10-16T13:00:50;101070.84;;;22.28
49785;BMP280;35679;38.732;-121.358;2022-10-16T13:04:16;101073.75;;;22.26
49785;BMP280;35679;38.732;-121.358;2022-10-16T13:07:29;101080.41;;;22.01
49785;BMP280;35679;38.732;-121.358;2022-10-16T13:10:42;101079.88;;;21.70
49785;BMP280;35679;38.732;-121.358;2022-10-16T13:23:23;101082.13;;;20.96
49785;BMP280;35679;38.732;-121.358;2022-10-16T13:26:38;101090.88;;;20.92
49785;BMP280;35679;38.732;-121.358;2022-10-16T13:29:32;101096.56;;;20.95
49785;BMP280;35679;38.732;-121.358;2022-10-16T13:32:23;101095.91;;;21.00
49785;BMP280;35679;38.732;-121.358;2022-10-16T13:35:32;101109.47;;;21.05
49785;BMP280;35679;38.732;-121.358;2022-10-16T13:38:27;101111.41;;;20.98
49785;BMP280;35679;38.732;-121.358;2022-10-16T13:41:18;101129.13;;;20.99
49785;BMP280;35679;38.732;-121.358;2022-10-16T13:44:28;101124.75;;;21.04
49785;BMP280;35679;38.732;-121.358;2022-10-16T13:47:24;101129.28;;;21.04
49785;BMP280;35679;38.732;-121.358;2022-10-16T13:50:18;101125.88;;;20.97
49785;BMP280;35679;38.732;-121.358;2022-10-16T13:53:15;101131.91;;;20.92
49785;BMP280;35679;38.732;-121.358;2022-10-16T13:56:09;101131.91;;;20.92
49785;BMP280;35679;38.732;-121.358;2022-10-16T13:59:26;101139.44;;;20.84
49785;BMP280;35679;38.732;-121.358;2022-10-16T14:05:23;101159.09;;;20.78
49785;BMP280;35679;38.732;-121.358;2022-10-16T14:08:14;101161.19;;;20.76
49785;BMP280;35679;38.732;-121.358;2022-10-16T14:11:05;101155.91;;;20.87
49785;BMP280;35679;38.732;-121.358;2022-10-16T14:13:55;101157.91;;;20.74
49785;BMP280;35679;38.732;-121.358;2022-10-16T14:16:46;101159.09;;;20.78
49785;BMP280;35679;38.732;-121.358;2022-10-16T14:19:37;101156.22;;;20.73
49785;BMP280;35679;38.732;-121.358;2022-10-16T14:22:34;101159.78;;;20.67
49785;BMP280;35679;38.732;-121.358;2022-10-16T14:25:28;101170.09;;;20.70
49785;BMP280;35679;38.732;-121.358;2022-10-16T14:28:21;101168.13;;;20.59
49785;BMP280;35679;38.732;-121.358;2022-10-16T14:31:31;101166.78;;;20.68
49785;BMP280;35679;38.732;-121.358;2022-10-16T14:37:25;101189.50;;;20.65
49785;BMP280;35679;38.732;-121.358;2022-10-16T14:40:18;101187.50;;;20.61
49785;BMP280;35679;38.732;-121.358;2022-10-16T14:44:00;101199.66;;;20.63
49785;BMP280;35679;38.732;-121.358;2022-10-16T14:46:35;101202.19;;;20.58
49785;BMP280;35679;38.732;-121.358;2022-10-16T14:49:32;101205.06;;;20.57
49785;BMP280;35679;38.732;-121.358;2022-10-16T14:52:23;101210.66;;;20.55
49785;BMP280;35679;38.732;-121.358;2022-10-16T14:55:13;101210.88;;;20.54
49785;BMP280;35679;38.732;-121.358;2022-10-16T14:58:05;101215.38;;;20.53
49785;BMP280;35679;38.732;-121.358;2022-10-16T15:00:56;101223.56;;;20.65
49785;BMP280;35679;38.732;-121.358;2022-10-16T15:03:46;101219.25;;;20.64
49785;BMP280;35679;38.732;-121.358;2022-10-16T15:06:37;101223.81;;;20.57
49785;BMP280;35679;38.732;-121.358;2022-10-16T15:09:29;101228.00;;;20.53
49785;BMP280;35679;38.732;-121.358;2022-10-16T15:12:19;101234.50;;;20.63
49785;BMP280;35679;38.732;-121.358;2022-10-16T15:15:37;101224.94;;;20.74
49785;BMP280;35679;38.732;-121.358;2022-10-16T15:18:28;101230.78;;;20.64
49785;BMP280;35679;38.732;-121.358;2022-10-16T15:21:27;101249.38;;;20.59
49785;BMP280;35679;38.732;-121.358;2022-10-16T15:24:18;101251.41;;;20.64
49785;BMP280;35679;38.732;-121.358;2022-10-16T15:27:10;101253.47;;;20.62
49785;BMP280;35679;38.732;-121.358;2022-10-16T15:29:59;101257.88;;;20.56
49785;BMP280;35679;38.732;-121.358;2022-10-16T15:32:50;101256.78;;;20.64
49785;BMP280;35679;38.732;-121.358;2022-10-16T15:35:40;101269.38;;;20.63
49785;BMP280;35679;38.732;-121.358;2022-10-16T15:38:30;101268.59;;;20.56
49785;BMP280;35679;38.732;-121.358;2022-10-16T15:41:21;101270.28;;;20.51
49785;BMP280;35679;38.732;-121.358;2022-10-16T15:44:12;101274.94;;;20.62
49785;BMP280;35679;38.732;-121.358;2022-10-16T15:47:02;101276.16;;;20.66
49785;BMP280;35679;38.732;-121.358;2022-10-16T15:49:52;101275.38;;;20.59
49785;BMP280;35679;38.732;-121.358;2022-10-16T15:52:42;101276.81;;;20.61
49785;BMP280;35679;38.732;-121.358;2022-10-16T15:55:34;101284.03;;;20.61
49785;BMP280;35679;38.732;-121.358;2022-10-16T15:58:28;101285.41;;;20.70
49785;BMP280;35679;38.732;-121.358;2022-10-16T16:01:19;101285.03;;;20.91
49785;BMP280;35679;38.732;-121.358;2022-10-16T16:04:12;101289.22;;;20.87
49785;BMP280;35679;38.732;-121.358;2022-10-16T16:07:22;101283.97;;;20.67
49785;BMP280;35679;38.732;-121.358;2022-10-16T16:10:12;101294.88;;;20.72
49785;BMP280;35679;38.732;-121.358;2022-10-16T16:13:03;101295.88;;;20.78
49785;BMP280;35679;38.732;-121.358;2022-10-16T16:15:54;101295.00;;;20.84
49785;BMP280;35679;38.732;-121.358;2022-10-16T16:18:46;101291.28;;;20.85
49785;BMP280;35679;38.732;-121.358;2022-10-16T16:21:38;101297.91;;;20.82
49785;BMP280;35679;38.732;-121.358;2022-10-16T16:24:28;101302.25;;;20.83
49785;BMP280;35679;38.732;-121.358;2022-10-16T16:27:19;101308.19;;;20.85
49785;BMP280;35679;38.732;-121.358;2022-10-16T16:30:11;101310.84;;;20.92
49785;BMP280;35679;38.732;-121.358;2022-10-16T16:33:07;101317.81;;;20.93
49785;BMP280;35679;38.732;-121.358;2022-10-16T16:36:03;101317.81;;;20.93
49785;BMP280;35679;38.732;-121.358;2022-10-16T16:38:58;101329.16;;;20.95
49785;BMP280;35679;38.732;-121.358;2022-10-16T16:41:49;101321.75;;;20.97
49785;BMP280;35679;38.732;-121.358;2022-10-16T16:44:40;101320.63;;;21.04
49785;BMP280;35679;38.732;-121.358;2022-10-16T16:47:31;101320.88;;;21.20
49785;BMP280;35679;38.732;-121.358;2022-10-16T16:50:21;101320.00;;;21.26
49785;BMP280;35679;38.732;-121.358;2022-10-16T16:53:13;101321.81;;;21.32
49785;BMP280;35679;38.732;-121.358;2022-10-16T16:56:06;101320.31;;;21.36
49785;BMP280;35679;38.732;-121.358;2022-10-16T16:58:57;101319.50;;;21.36
49785;BMP280;35679;38.732;-121.358;2022-10-16T17:01:47;101316.22;;;21.34
49785;BMP280;35679;38.732;-121.358;2022-10-16T17:04:44;101315.97;;;21.35
49785;BMP280;35679;38.732;-121.358;2022-10-16T17:07:35;101320.53;;;21.35
49785;BMP280;35679;38.732;-121.358;2022-10-16T17:10:25;101324.19;;;21.40